Time;durP1;ratioP1;P1;durP2;ratioP2;P2;SDS_P1;SDS_P2;PMS_P1;PMS_P2;Temp;Humidity;BMP_temperature;BMP_pressure;BME280_temperature;BME280_humidity;BME280_pressure;Samples;Min_cycle;Max_cycle;Signal;HPM_P1;HPM_P2
2023/04/19 00:02:19;;;;;;;26.08;14.63;;;;;;;8.93;86.78;102467.00;5024926;28;20029;-76
2023/04/19 00:04:44;;;;;;;25.42;14.25;;;;;;;8.95;86.60;102470.50;5022273;28;20547;-76
2023/04/19 00:07:10;;;;;;;27.25;15.13;;;;;;;9.01;86.20;102464.03;5004510;28;20026;-76
2023/04/19 00:09:35;;;;;;;25.90;14.73;;;;;;;9.02;85.94;102466.63;5022279;28;20393;-76
2023/04/19 00:12:03;;;;;;;27.38;15.77;;;;;;;9.06;85.60;102456.66;5018144;28;20069;-76
2023/04/19 00:14:28;;;;;;;27.58;14.85;;;;;;;9.07;85.85;102459.25;5003681;28;20400;-76
2023/04/19 00:16:53;;;;;;;26.75;15.55;;;;;;;9.11;85.93;102451.97;5027424;28;20029;-77
2023/04/19 00:19:20;;;;;;;25.77;14.85;;;;;;;9.14;85.63;102453.66;5008653;28;20091;-76
2023/04/19 00:21:46;;;;;;;25.17;14.90;;;;;;;9.15;85.74;102450.94;5022103;28;20036;-77
2023/04/19 00:24:11;;;;;;;27.25;16.00;;;;;;;9.15;85.63;102456.28;5004203;28;20112;-76
2023/04/19 00:26:37;;;;;;;25.15;14.85;;;;;;;9.19;84.87;102454.34;5006694;28;20372;-76
2023/04/19 00:29:02;;;;;;;25.08;15.65;;;;;;;9.20;85.05;102448.03;5016982;28;20025;-76
2023/04/19 00:31:27;;;;;;;27.95;16.27;;;;;;;9.22;85.66;102448.84;5024592;28;20050;-76
2023/04/19 00:33:52;;;;;;;26.20;14.95;;;;;;;9.23;84.75;102447.91;5004189;28;20477;-76
2023/04/19 00:36:18;;;;;;;26.77;15.73;;;;;;;9.25;84.62;102452.28;5023650;28;20087;-76
2023/04/19 00:38:43;;;;;;;27.10;15.40;;;;;;;9.27;84.31;102454.91;5021193;28;20065;-76
2023/04/19 00:41:08;;;;;;;27.10;14.88;;;;;;;9.29;85.07;102452.16;5019266;28;20041;-76
2023/04/19 00:43:34;;;;;;;25.13;14.90;;;;;;;9.30;84.73;102454.78;5024743;28;20037;-76
2023/04/19 00:45:59;;;;;;;25.52;14.25;;;;;;;9.32;84.14;102442.16;5020076;28;20446;-76
2023/04/19 00:48:25;;;;;;;26.77;15.60;;;;;;;9.34;85.22;102442.09;5018526;28;20048;-77
2023/04/19 00:50:50;;;;;;;28.20;16.85;;;;;;;9.36;85.10;102443.78;5001779;28;20029;-76
2023/04/19 00:53:15;;;;;;;28.85;16.20;;;;;;;9.34;84.99;102434.94;4995405;28;20037;-76
2023/04/19 00:55:41;;;;;;;26.77;15.40;;;;;;;9.36;84.49;102445.59;5019705;28;20037;-76
2023/04/19 00:58:07;;;;;;;28.58;15.32;;;;;;;9.39;85.05;102448.13;5012576;28;20037;-76
2023/04/19 01:00:33;;;;;;;27.23;15.60;;;;;;;9.39;84.51;102446.31;5013878;28;20109;-77
2023/04/19 01:02:59;;;;;;;27.67;16.27;;;;;;;9.42;84.39;102446.19;5004228;28;20110;-77
2023/04/19 01:05:24;;;;;;;25.88;14.27;;;;;;;9.44;85.80;102441.63;5015017;28;20548;-76
2023/04/19 01:07:50;;;;;;;26.38;16.15;;;;;;;9.45;84.47;102440.69;5002549;28;20028;-77
2023/04/19 01:10:15;;;;;;;28.67;14.52;;;;;;;9.47;84.54;102439.75;5014674;28;20025;-76
2023/04/19 01:12:41;;;;;;;27.83;16.50;;;;;;;9.48;84.57;102441.50;5022398;28;20037;-76
2023/04/19 01:15:07;;;;;;;26.35;15.00;;;;;;;9.48;84.27;102441.50;5008669;28;20087;-76
2023/04/19 01:17:33;;;;;;;29.52;15.60;;;;;;;9.49;85.09;102443.22;5028544;28;20408;-75
2023/04/19 01:20:08;;;;;;;29.25;17.30;;;;;;;9.51;84.59;102446.75;4997090;28;20476;-76
2023/04/19 01:22:36;;;;;;;26.27;16.25;;;;;;;9.51;84.25;102438.69;5023113;28;20108;-77
2023/04/19 01:25:03;;;;;;;24.40;13.98;;;;;;;9.52;84.67;102443.13;5015361;28;20452;-76
2023/04/19 01:27:28;;;;;;;25.92;15.20;;;;;;;9.53;84.53;102450.22;5019162;28;20037;-76
2023/04/19 01:29:53;;;;;;;26.88;15.82;;;;;;;9.54;85.26;102438.56;5015953;28;20038;-77
2023/04/19 01:32:19;;;;;;;27.67;16.42;;;;;;;9.56;85.19;102442.91;5021092;28;20025;-76
2023/04/19 01:34:44;;;;;;;24.83;15.70;;;;;;;9.57;84.78;102438.41;5018201;28;20045;-77
2023/04/19 01:37:09;;;;;;;26.92;15.18;;;;;;;9.58;84.62;102448.22;4997594;28;20105;-77
2023/04/19 01:39:35;;;;;;;28.90;15.25;;;;;;;9.58;84.77;102448.22;4999938;28;20028;-76
2023/04/19 01:42:00;;;;;;;26.65;15.80;;;;;;;9.58;84.98;102445.53;5001839;28;20512;-77
2023/04/19 01:44:25;;;;;;;29.15;15.35;;;;;;;9.59;84.91;102439.19;5016347;28;20052;-77
2023/04/19 01:46:51;;;;;;;26.23;15.82;;;;;;;9.58;85.72;102440.16;4997939;28;20041;-75
2023/04/19 01:49:16;;;;;;;29.67;16.67;;;;;;;9.57;86.07;102441.09;4992641;28;20132;-76
2023/04/19 01:51:41;;;;;;;27.95;15.95;;;;;;;9.57;86.45;102435.72;5005340;28;20026;-77
2023/04/19 01:54:07;;;;;;;26.80;15.27;;;;;;;9.56;85.49;102439.34;5014861;28;20026;-76
2023/04/19 01:56:32;;;;;;;27.83;15.27;;;;;;;9.55;86.11;102438.47;5016726;28;20041;-76
2023/04/19 01:58:57;;;;;;;27.33;15.48;;;;;;;9.57;86.27;102435.72;5011127;28;20021;-76
2023/04/19 02:01:23;;;;;;;26.40;15.27;;;;;;;9.56;86.11;102437.56;4997573;28;20029;-76
2023/04/19 02:03:49;;;;;;;25.92;15.60;;;;;;;9.58;86.83;102432.13;5001607;28;20072;-76
2023/04/19 02:06:14;;;;;;;26.80;14.25;;;;;;;9.60;86.52;102424.84;5013249;28;20503;-77
2023/04/19 02:08:41;;;;;;;28.08;15.43;;;;;;;9.60;87.43;102420.38;5003913;28;20041;-76
2023/04/19 02:11:13;;;;;;;27.50;16.45;;;;;;;9.61;86.78;102415.88;5016192;28;20407;-77
2023/04/19 02:13:38;;;;;;;27.30;16.05;;;;;;;9.61;87.16;102410.50;5016590;28;20088;-75
2023/04/19 02:16:04;;;;;;;27.50;15.68;;;;;;;9.62;86.90;102413.13;5013938;28;20037;-76
2023/04/19 02:18:30;;;;;;;28.45;16.00;;;;;;;9.64;86.88;102406.81;5014512;28;20104;-77
2023/04/19 02:20:56;;;;;;;28.35;16.00;;;;;;;9.66;87.42;102412.97;5019677;28;20100;-77
2023/04/19 02:23:22;;;;;;;26.02;15.68;;;;;;;9.67;87.06;102410.22;5014462;28;20034;-76
2023/04/19 02:25:47;;;;;;;29.02;16.25;;;;;;;9.68;87.15;102403.91;5000310;28;20368;-77
2023/04/19 02:28:12;;;;;;;29.55;16.13;;;;;;;9.70;87.13;102404.72;5018663;28;20037;-77
2023/04/19 02:30:38;;;;;;;28.58;16.15;;;;;;;9.72;87.41;102410.91;5009103;28;20117;-77
2023/04/19 02:33:03;;;;;;;27.63;15.82;;;;;;;9.73;87.63;102404.56;5026929;28;20036;-77
2023/04/19 02:35:28;;;;;;;26.35;15.13;;;;;;;9.75;87.84;102402.72;5013804;28;20076;-77
2023/04/19 02:37:53;;;;;;;28.45;14.98;;;;;;;9.77;86.87;102414.25;5017568;28;20434;-76
2023/04/19 02:40:21;;;;;;;27.75;16.30;;;;;;;9.78;87.72;102409.72;4996435;28;20064;-76
2023/04/19 02:42:47;;;;;;;25.83;15.35;;;;;;;9.78;87.70;102409.72;5015333;28;20033;-77
2023/04/19 02:45:12;;;;;;;27.48;16.50;;;;;;;9.78;88.23;102407.03;5001779;28;20040;-77
2023/04/19 02:47:37;;;;;;;26.50;14.82;;;;;;;9.78;88.02;102405.25;5016866;28;20022;-77
2023/04/19 02:50:03;;;;;;;25.60;15.38;;;;;;;9.80;87.97;102408.72;5013201;28;20065;-77
2023/04/19 02:52:28;;;;;;;30.48;15.40;;;;;;;9.81;87.96;102406.94;5000584;28;20026;-77
2023/04/19 02:54:54;;;;;;;27.63;16.48;;;;;;;9.82;88.32;102410.47;5004573;28;20045;-77
2023/04/19 02:57:19;;;;;;;27.45;15.60;;;;;;;9.83;88.30;102414.91;5003275;28;20145;-77
2023/04/19 02:59:44;;;;;;;27.15;15.45;;;;;;;9.84;88.17;102411.28;4996084;28;20026;-76
2023/04/19 03:02:09;;;;;;;26.55;15.23;;;;;;;9.84;88.47;102414.84;5001630;28;20068;-77
2023/04/19 03:04:35;;;;;;;27.67;15.48;;;;;;;9.84;88.27;102416.63;5003560;28;20030;-77
2023/04/19 03:07:00;;;;;;;29.83;16.52;;;;;;;9.86;88.59;102414.78;4998611;28;20540;-77
2023/04/19 03:09:26;;;;;;;27.40;15.48;;;;;;;9.83;88.84;102410.41;5018392;28;20034;-77
2023/04/19 03:11:52;;;;;;;29.20;15.85;;;;;;;9.82;88.52;102407.78;5019144;28;20156;-77
2023/04/19 03:14:17;;;;;;;27.02;15.65;;;;;;;9.81;88.69;102417.69;5018892;28;20029;-76
2023/04/19 03:16:42;;;;;;;25.20;14.35;;;;;;;9.80;88.40;102408.72;5019531;28;20039;-77
2023/04/19 03:19:08;;;;;;;27.65;14.73;;;;;;;9.79;89.83;102415.06;5016589;28;20025;-76
2023/04/19 03:21:33;;;;;;;25.48;14.65;;;;;;;9.78;89.23;102402.56;5020750;28;20037;-77
2023/04/19 03:23:58;;;;;;;26.35;14.77;;;;;;;9.77;89.52;102406.19;4993379;28;20028;-77
2023/04/19 03:26:24;;;;;;;26.15;14.57;;;;;;;9.77;89.38;102402.63;4994441;28;20373;-76
2023/04/19 03:28:49;;;;;;;26.90;15.63;;;;;;;9.72;89.61;102401.97;5011353;28;20041;-77
2023/04/19 03:31:15;;;;;;;27.20;15.27;;;;;;;9.71;90.02;102406.47;5024323;28;20120;-77
2023/04/19 03:33:40;;;;;;;25.27;14.90;;;;;;;9.70;89.49;102395.78;5022136;28;20052;-76
2023/04/19 03:36:06;;;;;;;27.92;15.50;;;;;;;9.68;89.86;102398.56;5024365;28;20025;-77
2023/04/19 03:38:31;;;;;;;25.67;13.57;;;;;;;9.66;89.72;102395.03;5019586;28;20107;-77
2023/04/19 03:40:56;;;;;;;28.05;14.70;;;;;;;9.66;89.98;102388.81;5015329;28;20053;-77
2023/04/19 03:43:23;;;;;;;27.10;15.50;;;;;;;9.65;89.90;102395.13;5009286;28;20033;-76
2023/04/19 03:45:48;;;;;;;25.77;13.77;;;;;;;9.64;89.77;102391.56;5022186;28;20455;-76
2023/04/19 03:48:14;;;;;;;26.30;13.88;;;;;;;9.63;89.40;102387.13;5004048;28;20464;-76
2023/04/19 03:50:39;;;;;;;24.30;13.68;;;;;;;9.64;90.06;102393.41;5000172;28;20489;-76
2023/04/19 03:53:04;;;;;;;27.30;13.80;;;;;;;9.66;90.09;102397.72;4996660;28;20030;-77
2023/04/19 03:55:30;;;;;;;26.67;14.82;;;;;;;9.66;89.27;102402.25;5005164;28;20033;-77
2023/04/19 03:57:55;;;;;;;24.25;13.63;;;;;;;9.64;89.77;102394.25;5022841;28;20071;-76
2023/04/19 04:00:21;;;;;;;25.77;13.98;;;;;;;9.62;89.52;102393.47;5013451;28;20029;-77
2023/04/19 04:02:46;;;;;;;26.38;13.07;;;;;;;9.61;89.70;102399.75;5026627;28;20041;-77
2023/04/19 04:05:12;;;;;;;27.13;13.93;;;;;;;9.60;89.92;102403.38;5022909;28;20384;-76
2023/04/19 04:07:37;;;;;;;22.50;13.18;;;;;;;9.58;90.42;102406.13;4992913;28;20030;-76
2023/04/19 04:10:02;;;;;;;26.17;13.98;;;;;;;9.57;89.92;102404.38;5001575;28;20033;-76
2023/04/19 04:12:28;;;;;;;24.85;13.35;;;;;;;9.57;90.42;102408.88;5021069;28;20053;-76
2023/04/19 04:14:53;;;;;;;27.40;14.45;;;;;;;9.55;90.21;102403.59;5023649;28;20017;-77
2023/04/19 04:17:18;;;;;;;24.42;13.52;;;;;;;9.56;90.18;102409.81;4999771;28;20496;-77
2023/04/19 04:19:44;;;;;;;25.17;13.48;;;;;;;9.54;90.10;102403.66;5019755;28;20029;-77
2023/04/19 04:22:09;;;;;;;25.65;13.73;;;;;;;9.52;89.70;102397.50;5020784;28;20382;-76
2023/04/19 04:24:40;;;;;;;25.23;13.73;;;;;;;9.49;89.87;102395.81;5002910;28;20087;-77
2023/04/19 04:27:11;;;;;;;30.75;13.45;;;;;;;9.48;89.88;102396.75;5001858;28;20108;-77
2023/04/19 04:29:37;;;;;;;25.27;12.45;;;;;;;9.48;89.65;102399.44;5012987;28;20028;-77
2023/04/19 04:32:03;;;;;;;25.02;12.93;;;;;;;9.44;89.72;102404.06;5005777;28;20029;-76
2023/04/19 04:34:28;;;;;;;25.42;12.90;;;;;;;9.43;89.48;102405.00;5004082;28;20031;-76
2023/04/19 04:36:54;;;;;;;25.27;13.63;;;;;;;9.40;89.84;102407.81;5021477;28;20030;-77
2023/04/19 04:39:19;;;;;;;24.90;13.23;;;;;;;9.38;89.81;102411.50;5018172;28;20043;-76
2023/04/19 04:41:47;;;;;;;26.08;13.35;;;;;;;9.35;89.58;102408.94;5019379;28;20514;-77
2023/04/19 04:44:14;;;;;;;28.15;13.07;;;;;;;9.32;90.05;102409.09;5004176;28;20033;-77
2023/04/19 04:46:39;;;;;;;24.23;12.80;;;;;;;9.30;89.23;102411.84;5008883;28;20133;-77
2023/04/19 04:49:05;;;;;;;24.75;12.73;;;;;;;9.27;89.18;102418.19;5011394;28;20044;-76
2023/04/19 04:51:31;;;;;;;24.90;13.05;;;;;;;9.25;89.60;102403.09;4998960;28;20396;-77
2023/04/19 04:53:57;;;;;;;25.40;12.98;;;;;;;9.25;89.99;102414.72;5012989;28;20037;-77
2023/04/19 04:56:22;;;;;;;23.75;11.48;;;;;;;9.22;89.61;102411.28;5016049;28;20558;-76
2023/04/19 04:58:47;;;;;;;25.80;11.45;;;;;;;9.21;89.45;102422.94;5002717;28;20083;-77
2023/04/19 05:01:13;;;;;;;24.55;11.07;;;;;;;9.17;89.62;102429.41;5014282;28;20026;-77
2023/04/19 05:03:38;;;;;;;23.02;11.25;;;;;;;9.14;89.35;102419.66;5005269;28;20025;-77
2023/04/19 05:06:04;;;;;;;24.45;10.70;;;;;;;9.12;88.48;102426.03;5019472;28;20496;-77
2023/04/19 05:08:29;;;;;;;23.38;10.88;;;;;;;9.09;88.96;102425.22;4999987;28;20049;-76
2023/04/19 05:10:55;;;;;;;22.35;10.27;;;;;;;9.06;88.68;102432.50;5003959;28;20392;-75
2023/04/19 05:13:20;;;;;;;22.17;9.85;;;;;;;9.03;87.42;102430.81;5009770;28;20060;-76
2023/04/19 05:15:45;;;;;;;23.20;9.65;;;;;;;8.99;87.44;102434.59;5019456;28;20029;-77
2023/04/19 05:18:11;;;;;;;23.77;10.25;;;;;;;8.97;87.29;102433.75;4998527;28;20053;-76
2023/04/19 05:20:36;;;;;;;21.38;10.02;;;;;;;8.95;87.47;102432.09;5015720;28;20044;-76
2023/04/19 05:23:02;;;;;;;23.08;10.05;;;;;;;8.94;86.82;102433.03;5023485;28;20029;-76
2023/04/19 05:25:28;;;;;;;23.02;9.27;;;;;;;8.91;87.11;102431.34;5026308;28;20116;-77
2023/04/19 05:27:54;;;;;;;19.27;8.20;;;;;;;8.87;87.10;102430.59;4995171;28;20034;-76
2023/04/19 05:30:19;;;;;;;19.65;8.50;;;;;;;8.88;86.89;102436.81;5017906;28;20022;-76
2023/04/19 05:32:45;;;;;;;21.90;9.25;;;;;;;8.87;86.69;102437.75;5019176;28;20040;-77
2023/04/19 05:35:11;;;;;;;24.63;8.80;;;;;;;8.86;86.16;102442.25;5000323;28;20024;-76
2023/04/19 05:37:37;;;;;;;21.48;9.23;;;;;;;8.84;86.71;102432.53;5000881;28;20111;-76
2023/04/19 05:40:04;;;;;;;21.92;8.70;;;;;;;8.84;86.42;102438.75;4995622;28;20021;-75
2023/04/19 05:42:30;;;;;;;21.85;9.88;;;;;;;8.85;87.03;102439.63;5023707;28;20044;-76
2023/04/19 05:44:55;;;;;;;22.35;10.15;;;;;;;8.85;86.51;102431.59;5018959;28;20022;-76
2023/04/19 05:47:20;;;;;;;25.95;9.90;;;;;;;8.84;86.95;102430.69;5022318;28;20029;-76
2023/04/19 05:49:46;;;;;;;23.52;9.70;;;;;;;8.85;86.95;102436.97;5006912;28;20037;-76
2023/04/19 05:52:11;;;;;;;22.38;8.50;;;;;;;8.86;87.13;102436.03;5016452;28;20040;-76
2023/04/19 05:54:36;;;;;;;23.80;10.10;;;;;;;8.87;87.14;102440.44;5003018;28;20021;-75
2023/04/19 05:57:02;;;;;;;20.17;9.30;;;;;;;8.90;86.95;102434.94;5000691;28;20099;-76
2023/04/19 05:59:27;;;;;;;21.55;9.27;;;;;;;8.89;87.21;102431.41;5022493;28;20021;-77
2023/04/19 06:01:54;;;;;;;21.85;9.35;;;;;;;8.89;85.77;102444.81;5018780;28;20041;-76
2023/04/19 06:04:20;;;;;;;22.10;9.68;;;;;;;8.86;85.93;102444.06;5020119;28;20049;-76
2023/04/19 06:06:45;;;;;;;22.83;9.82;;;;;;;8.84;85.32;102440.56;5024819;28;20388;-76
2023/04/19 06:09:12;;;;;;;23.95;9.73;;;;;;;8.80;85.54;102450.56;5010702;28;20100;-76
2023/04/19 06:11:37;;;;;;;21.65;9.63;;;;;;;8.78;85.88;102446.19;5003034;28;20029;-76
2023/04/19 06:14:04;;;;;;;21.25;9.98;;;;;;;8.79;85.54;102450.63;5011118;28;20034;-76
2023/04/19 06:16:29;;;;;;;24.30;10.48;;;;;;;8.78;84.55;102447.03;5010492;28;20037;-76
2023/04/19 06:18:55;;;;;;;21.10;9.82;;;;;;;8.85;85.11;102451.22;4991019;28;20029;-77
2023/04/19 06:21:21;;;;;;;22.25;9.82;;;;;;;8.92;85.83;102450.03;4987553;28;20034;-76
2023/04/19 06:23:46;;;;;;;20.85;9.38;;;;;;;8.96;83.55;102447.22;5008740;28;20033;-76
2023/04/19 06:26:11;;;;;;;19.80;8.63;;;;;;;9.00;83.25;102449.72;5006008;28;20427;-76
2023/04/19 06:28:36;;;;;;;24.17;9.18;;;;;;;9.02;82.43;102442.50;5005527;28;20026;-76
2023/04/19 06:31:02;;;;;;;22.65;9.68;;;;;;;9.06;82.78;102437.88;5008068;28;20030;-77
2023/04/19 06:33:27;;;;;;;22.02;8.27;;;;;;;9.12;82.22;102444.78;4986406;28;20030;-76
2023/04/19 06:35:52;;;;;;;20.15;8.52;;;;;;;9.16;81.69;102441.06;4992595;28;20067;-76
2023/04/19 06:38:18;;;;;;;19.30;7.75;;;;;;;9.20;80.21;102448.03;5025326;28;20092;-76
2023/04/19 06:40:43;;;;;;;20.20;8.32;;;;;;;9.26;80.11;102439.72;5019420;28;20029;-76
2023/04/19 06:43:08;;;;;;;21.60;8.88;;;;;;;9.31;80.22;102435.03;5016551;28;20032;-76
2023/04/19 06:45:33;;;;;;;23.05;8.93;;;;;;;9.36;77.69;102429.50;4985779;28;20018;-76
2023/04/19 06:47:59;;;;;;;19.75;8.38;;;;;;;9.42;77.16;102431.91;5014062;28;20029;-76
2023/04/19 06:50:25;;;;;;;19.45;8.15;;;;;;;9.48;75.94;102433.44;5003395;28;20029;-76
2023/04/19 06:52:51;;;;;;;20.88;8.55;;;;;;;9.51;76.05;102431.50;5014022;28;20125;-76
2023/04/19 06:55:32;;;;;;;;;;;;;;;;;;;;;
2023/04/19 06:57:58;;;;;;;21.92;8.40;;;;;;;9.56;73.38;102440.22;5022503;28;20029;-77
2023/04/19 07:00:23;;;;;;;20.60;8.73;;;;;;;9.56;73.11;102436.66;5019752;28;20104;-76
2023/04/19 07:02:49;;;;;;;20.95;8.27;;;;;;;9.57;71.76;102436.59;5001901;28;20061;-77
2023/04/19 07:05:15;;;;;;;21.02;7.72;;;;;;;9.61;72.53;102432.84;4994927;28;20044;-76
2023/04/19 07:07:40;;;;;;;19.88;8.57;;;;;;;9.67;73.21;102433.53;5004448;28;20361;-76
2023/04/19 07:10:07;;;;;;;21.25;8.00;;;;;;;9.70;71.67;102439.63;5005193;28;20120;-77
2023/04/19 07:12:32;;;;;;;20.27;8.10;;;;;;;9.75;72.72;102440.31;5021084;28;20602;-77
2023/04/19 07:14:58;;;;;;;20.77;8.57;;;;;;;9.80;71.60;102443.63;5009202;28;20052;-76
2023/04/19 07:17:23;;;;;;;20.63;8.82;;;;;;;9.81;69.80;102439.16;4990703;28;20055;-77
2023/04/19 07:19:48;;;;;;;21.67;8.25;;;;;;;9.84;70.15;102432.75;5002730;28;20528;-76
2023/04/19 07:22:14;;;;;;;18.85;7.70;;;;;;;9.88;71.37;102439.75;4993558;28;20029;-77
2023/04/19 07:24:40;;;;;;;21.73;7.80;;;;;;;9.90;70.17;102436.06;5017810;28;20032;-76
2023/04/19 07:27:06;;;;;;;19.02;6.85;;;;;;;9.93;69.03;102437.72;5018970;28;20024;-77
2023/04/19 07:29:33;;;;;;;19.77;8.05;;;;;;;9.93;68.87;102440.41;5014958;28;20026;-77
2023/04/19 07:32:00;;;;;;;19.75;7.60;;;;;;;9.94;68.49;102436.78;5019379;28;20032;-77
2023/04/19 07:34:26;;;;;;;19.25;7.55;;;;;;;9.98;69.54;102438.38;5000816;28;20022;-77
2023/04/19 07:36:51;;;;;;;19.25;7.80;;;;;;;10.02;68.24;102431.06;5021541;28;20107;-76
2023/04/19 07:39:16;;;;;;;22.35;8.20;;;;;;;10.06;68.63;102433.53;5019080;28;20072;-77
2023/04/19 07:41:42;;;;;;;20.08;8.70;;;;;;;10.10;67.62;102428.88;5001534;28;20025;-77
2023/04/19 07:44:08;;;;;;;21.75;7.68;;;;;;;10.13;68.10;102432.31;5002694;28;20489;-77
2023/04/19 07:46:33;;;;;;;17.95;7.07;;;;;;;10.15;67.00;102427.75;5022238;28;20171;-77
2023/04/19 07:48:58;;;;;;;21.23;8.02;;;;;;;10.21;65.88;102423.91;4992960;28;20030;-77
2023/04/19 07:51:25;;;;;;;19.27;7.38;;;;;;;10.27;67.30;102431.66;4993241;28;20061;-77
2023/04/19 07:53:50;;;;;;;19.33;7.05;;;;;;;10.29;64.67;102428.91;5014232;28;20353;-77
2023/04/19 07:56:15;;;;;;;20.95;8.27;;;;;;;10.34;66.77;102426.91;5018909;28;20054;-76
2023/04/19 07:58:41;;;;;;;16.98;6.70;;;;;;;10.39;65.47;102419.50;5002123;28;20554;-77
2023/04/19 08:01:06;;;;;;;18.55;7.25;;;;;;;10.44;66.41;102425.53;5002607;28;20087;-77
2023/04/19 08:03:35;;;;;;;20.10;7.88;;;;;;;10.47;64.74;102420.00;5018239;28;20041;-77
2023/04/19 08:06:02;;;;;;;21.60;7.72;;;;;;;10.52;65.84;102429.69;4997384;28;20108;-76
2023/04/19 08:08:27;;;;;;;18.67;7.38;;;;;;;10.56;65.41;102433.97;5017707;28;20393;-76
2023/04/19 08:10:55;;;;;;;20.13;7.93;;;;;;;10.57;64.17;102427.63;4999960;28;20040;-76
2023/04/19 08:13:21;;;;;;;24.15;8.07;;;;;;;10.60;63.41;102424.78;5010364;28;20524;-77
2023/04/19 08:15:47;;;;;;;19.13;8.02;;;;;;;10.62;64.35;102420.22;5022560;28;20050;-77
2023/04/19 08:18:13;;;;;;;21.55;8.23;;;;;;;10.63;62.77;102424.63;5006216;28;20124;-77
2023/04/19 08:20:41;;;;;;;21.23;8.00;;;;;;;10.68;63.56;102411.00;5015251;28;20030;-77
2023/04/19 08:23:07;;;;;;;21.75;8.70;;;;;;;10.73;64.22;102414.31;4993175;28;20049;-77
2023/04/19 08:25:33;;;;;;;23.33;8.35;;;;;;;10.78;64.02;102414.97;4992328;28;20109;-76
2023/04/19 08:27:58;;;;;;;20.20;6.80;;;;;;;10.81;63.50;102418.38;4996424;28;20643;-77
2023/04/19 08:30:23;;;;;;;20.80;7.90;;;;;;;10.84;61.96;102418.22;5004759;28;20037;-77
2023/04/19 08:32:49;;;;;;;21.75;7.85;;;;;;;10.91;62.49;102413.41;5011906;28;20120;-76
2023/04/19 08:35:15;;;;;;;19.73;7.53;;;;;;;10.94;60.80;102407.03;5002126;28;20076;-77
2023/04/19 08:37:40;;;;;;;21.75;7.95;;;;;;;10.97;60.80;102421.19;5016675;28;20029;-77
2023/04/19 08:40:06;;;;;;;20.88;8.88;;;;;;;11.01;61.40;102413.81;4999862;28;20441;-77
2023/04/19 08:42:34;;;;;;;22.30;7.38;;;;;;;11.06;60.88;102419.84;5017591;28;20029;-77
2023/04/19 08:45:04;;;;;;;20.08;7.22;;;;;;;11.09;61.68;102419.69;4994814;28;20017;-77
2023/04/19 08:47:32;;;;;;;18.92;6.90;;;;;;;11.11;60.12;102419.63;5015256;28;20026;-77
2023/04/19 08:49:59;;;;;;;19.55;7.75;;;;;;;11.13;59.01;102404.28;5010939;28;20128;-77
2023/04/19 08:52:26;;;;;;;18.27;7.25;;;;;;;11.19;60.48;102407.50;4998335;28;20410;-77
2023/04/19 08:54:53;;;;;;;19.58;7.40;;;;;;;11.24;56.89;102403.72;5013297;28;20374;-77
2023/04/19 08:57:19;;;;;;;19.75;7.82;;;;;;;11.28;57.81;102405.31;5016728;28;20052;-77
2023/04/19 08:59:47;;;;;;;19.17;7.57;;;;;;;11.32;58.34;102396.13;5020277;28;20033;-76
2023/04/19 09:02:13;;;;;;;18.83;7.20;;;;;;;11.35;58.44;102396.84;5019747;28;20495;-78
2023/04/19 09:04:38;;;;;;;20.63;7.60;;;;;;;11.40;58.53;102401.97;5005366;28;20123;-79
2023/04/19 09:07:04;;;;;;;20.42;7.60;;;;;;;11.45;56.68;102407.13;4998152;28;20473;-78
2023/04/19 09:09:30;;;;;;;20.98;7.97;;;;;;;11.47;55.02;102397.16;5001446;28;20034;-78
2023/04/19 09:11:56;;;;;;;19.15;7.82;;;;;;;11.56;58.62;102406.56;5003519;28;20029;-78
2023/04/19 09:14:22;;;;;;;18.17;7.18;;;;;;;11.57;54.90;102405.59;5020082;28;20030;-78
2023/04/19 09:16:50;;;;;;;18.27;6.90;;;;;;;11.64;57.09;102409.72;5003639;28;20385;-78
2023/04/19 09:19:16;;;;;;;18.98;7.38;;;;;;;11.68;55.98;102398.72;5017813;28;20030;-78
2023/04/19 09:21:41;;;;;;;16.67;6.30;;;;;;;11.72;55.29;102396.72;5003655;28;20482;-78
2023/04/19 09:24:07;;;;;;;17.55;6.53;;;;;;;11.79;56.29;102399.97;5005213;28;20044;-78
2023/04/19 09:26:33;;;;;;;18.23;6.80;;;;;;;11.80;52.88;102394.50;5019220;28;20034;-78
2023/04/19 09:29:01;;;;;;;17.42;6.15;;;;;;;11.80;53.25;102394.50;5017243;28;20504;-78
2023/04/19 09:31:29;;;;;;;16.92;6.07;;;;;;;11.82;53.07;102395.28;5002160;28;20053;-78
2023/04/19 09:33:55;;;;;;;21.42;6.65;;;;;;;11.83;52.44;102398.81;5002552;28;20492;-79
2023/04/19 09:36:31;;;;;;;21.50;5.78;;;;;;;11.86;52.47;102391.47;5002283;28;20525;-78
2023/04/19 09:38:57;;;;;;;16.63;5.82;;;;;;;11.91;52.43;102409.22;5015263;28;20097;-78
2023/04/19 09:41:23;;;;;;;16.95;5.60;;;;;;;11.89;48.84;102394.00;5005068;28;20152;-78
2023/04/19 09:43:49;;;;;;;16.83;5.78;;;;;;;11.92;51.13;102400.16;5004195;28;20048;-78
2023/04/19 09:46:34;;;;;;;17.10;5.88;;;;;;;11.96;52.58;102389.19;4995531;28;20511;-78
2023/04/19 09:49:12;;;;;;;16.20;5.45;;;;;;;11.99;52.28;102394.41;5000017;28;20374;-78
2023/04/19 09:51:48;;;;;;;16.88;5.13;;;;;;;11.96;49.20;102388.28;4997988;28;20481;-78
2023/04/19 09:54:15;;;;;;;15.98;5.30;;;;;;;12.04;51.90;102396.84;4997083;28;20496;-78
2023/04/19 09:56:40;;;;;;;18.25;5.68;;;;;;;12.03;50.27;102395.09;5003736;28;20588;-78
2023/04/19 09:59:07;;;;;;;13.70;4.85;;;;;;;12.00;46.97;102393.44;4984198;28;20040;-78
2023/04/19 10:01:37;;;;;;;15.93;4.88;;;;;;;12.00;48.45;102387.19;4998426;28;20112;-78
2023/04/19 10:04:06;;;;;;;17.33;5.10;;;;;;;11.98;48.49;102386.41;5018454;28;20473;-78
2023/04/19 10:06:33;;;;;;;17.17;5.82;;;;;;;12.01;49.71;102392.47;5003582;28;20052;-78
2023/04/19 10:09:02;;;;;;;19.35;5.35;;;;;;;12.00;48.46;102390.72;5001697;28;20025;-78
2023/04/19 10:11:37;;;;;;;13.35;4.60;;;;;;;12.00;47.80;102387.19;5019226;28;20037;-78
2023/04/19 10:14:07;;;;;;;17.45;4.72;;;;;;;12.01;46.25;102391.63;5005126;28;20030;-77
2023/04/19 10:16:33;;;;;;;15.18;4.97;;;;;;;12.05;46.43;102398.59;5006742;28;20484;-78
2023/04/19 10:19:01;;;;;;;16.75;5.30;;;;;;;12.07;46.85;102396.66;4999193;28;20017;-78
2023/04/19 10:21:27;;;;;;;14.15;4.80;;;;;;;12.08;47.61;102382.25;5001990;28;20069;-78
2023/04/19 10:23:54;;;;;;;12.50;4.70;;;;;;;12.11;47.41;102390.16;5011678;28;20458;-78
2023/04/19 10:26:21;;;;;;;14.98;5.13;;;;;;;12.11;47.51;102379.38;5017942;28;20021;-78
2023/04/19 10:28:46;;;;;;;15.35;4.60;;;;;;;12.10;46.06;102380.31;5002415;28;20480;-78
2023/04/19 10:31:12;;;;;;;16.90;5.00;;;;;;;12.10;48.37;102380.31;5019811;28;20029;-78
2023/04/19 10:33:37;;;;;;;14.57;4.60;;;;;;;12.12;47.05;102374.84;5021536;28;20079;-78
2023/04/19 10:36:08;;;;;;;16.65;4.68;;;;;;;12.11;44.75;102363.22;4995004;28;20040;-78
2023/04/19 10:38:48;;;;;;;13.00;4.15;;;;;;;12.13;45.69;102373.91;4987709;28;20057;-78
2023/04/19 10:41:14;;;;;;;13.55;3.97;;;;;;;12.10;43.23;102372.25;5009394;28;20120;-77
2023/04/19 10:43:45;;;;;;;12.30;3.85;;;;;;;12.12;43.54;102372.16;5013777;28;20026;-79
2023/04/19 10:46:19;;;;;;;11.25;3.88;;;;;;;12.15;46.24;102371.97;4994447;28;20053;-78
2023/04/19 10:48:59;;;;;;;9.82;3.47;;;;;;;12.18;45.41;102369.13;4991517;28;20080;-78
2023/04/19 10:51:32;;;;;;;8.82;3.40;;;;;;;12.23;45.98;102369.75;5008662;28;20485;-79
2023/04/19 10:54:00;;;;;;;11.27;3.83;;;;;;;12.28;45.57;102356.84;4998826;28;20456;-78
2023/04/19 10:56:31;;;;;;;10.73;3.33;;;;;;;12.31;44.52;102363.91;5000764;28;20033;-78
2023/04/19 10:59:00;;;;;;;18.00;3.58;;;;;;;12.35;44.26;102355.56;5010630;28;20048;-78
2023/04/19 11:01:41;;;;;;;11.23;3.05;;;;;;;12.37;43.97;102360.84;5017211;28;20033;-78
2023/04/19 11:04:30;;;;;;;8.70;3.10;;;;;;;12.42;44.09;102356.09;4993670;28;20072;-78
2023/04/19 11:07:02;;;;;;;12.75;3.50;;;;;;;12.44;42.46;102353.31;4985026;28;20049;-78
2023/04/19 11:09:33;;;;;;;8.55;2.90;;;;;;;12.44;40.17;102340.69;5014267;28;20033;-78
2023/04/19 11:12:11;;;;;;;7.63;2.60;;;;;;;12.42;41.69;102348.00;4997363;28;20381;-78
2023/04/19 11:14:41;;;;;;;14.07;3.83;;;;;;;12.43;42.35;102343.47;5011995;28;20121;-78
2023/04/19 11:17:15;;;;;;;16.48;3.10;;;;;;;12.44;42.78;102354.16;5003072;28;20030;-78